LIPELIPR

Guest
Details From LIPE - Bologna
To LIPR - Rimini Mil
Flight Number -
Tags Routegen Generated
Created
Modified
Stats Distance 63 nm / 117 km
Max Altitude 300 ft / 91 m
Waypoints 7
Social Downloads 2
Likes 0
Share VATSIM

Download

Looking for another format? Having issues loading an existing format? Contact us
Advertisement - Login to hide

Notes

Departing runway 11 LIPE. Arriving runway 12 LIPR.

Route

LIPE +44.50_+011.39 +44.33_+011.85 +44.13_+012.40 +44.12_+012.42 +44.12_+012.44 LIPR

ID Type Via Altitude (ft/m) Position (lat/lon) Dist (leg/tot) Name
O LIPE APT - 0 / 0 44.52977 / 11.30442 - / 0 nm
+44.50_+011.39 DME - 300 / 91 44.49710 / 11.39497 4 / 4 nm
+44.33_+011.85 DME - 300 / 91 44.33396 / 11.84563 21 / 26 nm
+44.13_+012.40 DME - 300 / 91 44.13173 / 12.40290 26 / 52 nm
+44.12_+012.42 DME - 300 / 91 44.12498 / 12.42074 0 / 53 nm
+44.12_+012.44 DME - 300 / 91 44.11714 / 12.43769 0 / 54 nm
O LIPR APT - 0 / 0 44.02853 / 12.59696 8 / 63 nm

Altitude Profile

Advertisement - Login to hide

LIPE

Details ICAO LIPE (BLQ)
Name Bologna
Region Italy
Timezone Europe/Rome (UTC+2.0)
Stats Elevation 123 ft / 37 m (AMSL)
Location 44.535600° 11.288300°
Runways 1
Magnetic Variation 3.012° E

METAR

LIPE 190120Z 23003KT 4000 BR NSC 14/13 Q1017

Decode

TAF

TAF LIPE 182300Z 1900/1924 VRB05KT 6000 FEW060 TEMPO 1902/1907 2000 BR

Decode

Departure Runways

ID Width Length Bearing (true/mag) Surface Threshold Overrun Markings Lighting
12 148 ft / 45 m 9,205 ft / 2,806 m 116.78° / 113.77° ASPHALT 1,017 ft / 310 m 0 ft / 0 m PREC-APP CENTERLINE EDGE THRESHOLD ALSF-I TDZ REIL-OMNI
30 148 ft / 45 m 9,205 ft / 2,806 m 296.81° / 293.79° ASPHALT 1,194 ft / 364 m 174 ft / 53 m APP CENTERLINE EDGE THRESHOLD SALS REIL-OMNI

LIPR

Details ICAO LIPR (RMI)
Name Rimini Mil
Region Italy
Timezone Europe/Rome (UTC+2.0)
Stats Elevation 41 ft / 12 m (AMSL)
Location 44.020300° 12.611700°
Runways 1
Magnetic Variation 3.260° E

METAR

LIPR 190120Z AUTO 21003KT 2100 BR NCD 13/13 Q1017

Decode

TAF

Not found

Destination Runways

ID Width Length Bearing (true/mag) Surface Threshold Overrun Markings Lighting
13 148 ft / 45 m 9,818 ft / 2,992 m 127.79° / 124.53° ASPHALT 1,030 ft / 314 m 846 ft / 258 m PREC-APP EDGE THRESHOLD CALVERT-ILS REIL-OMNI
31 148 ft / 45 m 9,818 ft / 2,992 m 307.81° / 304.55° ASPHALT 1,006 ft / 307 m 376 ft / 115 m PREC-APP EDGE THRESHOLD CALVERT-ILS REIL-OMNI

Approach Navaids

Runway Type Ident Frequency Range Bearing (true/mag) Slope Elevation
31 LOC-ILS MIR 109.30 MHz 18 nm / 33 km 307.77° / 304.51 ° - 41 ft / 12 m (AMSL)
31 MM MM - - 307.80° / 304.54 ° - 41 ft / 12 m (AMSL)
31 GS MIR 109.30 MHz 10 nm / 19 km 308.60° / 305.34 ° 3.00° 41 ft / 12 m (AMSL)
31 OM OM - - 307.80° / 304.54 ° - 41 ft / 12 m (AMSL)

Popular Alternatives